createdAt,value
2018-12-27T00:00:16.321Z,12.58
2018-12-27T00:02:44.559Z,11.93
2018-12-27T00:05:12.698Z,10.13
2018-12-27T00:07:40.871Z,10.90
2018-12-27T00:10:09.007Z,11.13
2018-12-27T00:12:37.130Z,10.33
2018-12-27T00:15:05.407Z,10.90
2018-12-27T00:17:33.531Z,10.65
2018-12-27T00:20:01.684Z,10.95
2018-12-27T00:22:29.799Z,10.88
2018-12-27T00:24:57.987Z,9.88
2018-12-27T00:27:26.113Z,9.98
2018-12-27T00:29:54.238Z,10.72
2018-12-27T00:32:22.490Z,10.95
2018-12-27T00:34:50.679Z,10.30
2018-12-27T00:37:18.931Z,10.38
2018-12-27T00:39:47.131Z,10.45
2018-12-27T00:42:15.508Z,9.95
2018-12-27T00:44:43.724Z,11.55
2018-12-27T00:47:11.918Z,9.75
2018-12-27T00:49:40.140Z,10.90
2018-12-27T00:52:08.332Z,8.93
2018-12-27T00:54:36.567Z,9.90
2018-12-27T00:57:04.803Z,9.95
2018-12-27T00:59:33.015Z,9.90
2018-12-27T01:02:01.228Z,10.00
2018-12-27T01:04:29.420Z,10.03
2018-12-27T01:06:57.643Z,9.98
2018-12-27T01:09:25.862Z,9.53
2018-12-27T01:11:54.079Z,10.70
2018-12-27T01:14:22.263Z,9.65
2018-12-27T01:16:50.505Z,9.60
2018-12-27T01:19:18.696Z,9.90
2018-12-27T01:21:46.895Z,8.90
2018-12-27T01:24:15.121Z,10.08
2018-12-27T01:26:43.321Z,10.60
2018-12-27T01:29:11.547Z,11.12
2018-12-27T01:31:39.655Z,10.00
2018-12-27T01:34:07.816Z,10.60
2018-12-27T01:36:35.935Z,10.43
2018-12-27T01:39:05.245Z,10.00
2018-12-27T01:41:33.399Z,11.13
2018-12-27T01:44:01.506Z,8.73
2018-12-27T01:46:29.658Z,10.00
2018-12-27T01:48:57.774Z,10.20
2018-12-27T01:51:26.232Z,9.57
2018-12-27T01:53:54.367Z,10.60
2018-12-27T01:56:22.483Z,11.00
2018-12-27T01:58:50.649Z,10.60
2018-12-27T02:01:18.774Z,10.77
2018-12-27T02:03:46.929Z,10.20
2018-12-27T02:06:15.045Z,10.97
2018-12-27T02:08:43.387Z,11.77
2018-12-27T02:11:11.515Z,9.80
2018-12-27T02:13:39.638Z,11.03
2018-12-27T02:16:07.859Z,10.70
2018-12-27T02:18:36.047Z,10.70
2018-12-27T02:21:04.355Z,10.60
2018-12-27T02:23:32.464Z,11.90
2018-12-27T02:26:00.627Z,11.00
2018-12-27T02:28:28.819Z,10.13
2018-12-27T02:30:57.020Z,11.15
2018-12-27T02:33:35.077Z,11.15
2018-12-27T02:35:56.691Z,10.47
2018-12-27T02:38:24.903Z,9.20
2018-12-27T02:40:53.035Z,10.97
2018-12-27T02:43:21.293Z,11.38
2018-12-27T02:45:49.520Z,11.50
2018-12-27T02:48:17.635Z,10.13
2018-12-27T02:50:45.911Z,11.00
2018-12-27T02:53:14.017Z,10.77
2018-12-27T02:55:42.179Z,10.70
2018-12-27T02:58:10.423Z,11.45
2018-12-27T03:00:38.675Z,10.43
2018-12-27T03:03:06.838Z,10.97
2018-12-27T03:05:35.052Z,10.38
2018-12-27T03:08:03.156Z,9.93
2018-12-27T03:10:31.314Z,10.10
2018-12-27T03:12:59.485Z,10.43
2018-12-27T03:15:27.788Z,9.60
2018-12-27T03:17:56.004Z,10.20
2018-12-27T03:20:24.306Z,11.00
2018-12-27T03:22:52.423Z,10.33
2018-12-27T03:25:20.531Z,9.90
2018-12-27T03:27:48.683Z,10.07
2018-12-27T03:30:16.792Z,11.27
2018-12-27T03:32:45.021Z,10.38
2018-12-27T03:35:13.124Z,10.60
2018-12-27T03:37:41.267Z,11.33
2018-12-27T03:40:09.600Z,9.98
2018-12-27T03:42:37.712Z,10.70
2018-12-27T03:45:05.933Z,10.40
2018-12-27T03:47:34.132Z,11.05
2018-12-27T03:50:02.290Z,10.30
2018-12-27T03:52:30.976Z,11.00
2018-12-27T03:54:59.284Z,10.50
2018-12-27T03:57:27.428Z,10.80
2018-12-27T03:59:55.629Z,11.40
2018-12-27T04:02:23.853Z,10.82
2018-12-27T04:04:52.054Z,10.80
2018-12-27T04:07:20.194Z,10.67
2018-12-27T04:09:48.396Z,10.28
2018-12-27T04:12:16.620Z,11.27
2018-12-27T04:14:44.759Z,10.10
2018-12-27T04:17:12.784Z,11.93
2018-12-27T04:19:40.902Z,11.23
2018-12-27T04:22:09.031Z,11.30
2018-12-27T04:24:37.063Z,10.93
2018-12-27T04:27:05.112Z,11.23
2018-12-27T04:29:33.162Z,11.17
2018-12-27T04:32:01.220Z,9.83
2018-12-27T04:34:30.345Z,10.03
2018-12-27T04:36:59.514Z,10.10
2018-12-27T04:39:27.540Z,12.33
2018-12-27T04:41:55.978Z,10.10
2018-12-27T04:44:24.240Z,11.80
2018-12-27T04:46:52.263Z,12.10
2018-12-27T04:49:20.323Z,11.00
2018-12-27T04:51:48.366Z,12.00
2018-12-27T04:54:16.430Z,11.10
2018-12-27T04:56:44.462Z,10.87
2018-12-27T04:59:12.527Z,11.53
2018-12-27T05:01:40.586Z,11.70
2018-12-27T05:04:08.632Z,12.37
2018-12-27T05:06:36.760Z,10.65
2018-12-27T05:09:06.692Z,11.00
2018-12-27T05:11:34.762Z,12.33
2018-12-27T05:14:02.795Z,11.30
2018-12-27T05:16:30.835Z,12.57
2018-12-27T05:18:58.886Z,11.70
2018-12-27T05:21:26.922Z,10.50
2018-12-27T05:23:54.995Z,12.63
2018-12-27T05:26:23.035Z,11.30
2018-12-27T05:28:51.128Z,12.10
2018-12-27T05:31:19.152Z,11.43
2018-12-27T05:33:47.184Z,11.80
2018-12-27T05:36:15.235Z,11.80
2018-12-27T05:38:43.275Z,11.60
2018-12-27T05:41:11.344Z,12.40
2018-12-27T05:43:39.379Z,13.03
2018-12-27T05:46:07.632Z,11.33
2018-12-27T05:48:35.679Z,10.83
2018-12-27T05:51:03.699Z,12.20
2018-12-27T05:53:31.763Z,11.77
2018-12-27T05:55:59.813Z,11.43
2018-12-27T05:58:27.858Z,10.57
2018-12-27T06:00:55.919Z,10.90
2018-12-27T06:03:24.230Z,11.87
2018-12-27T06:05:52.274Z,12.60
2018-12-27T06:08:20.301Z,12.53
2018-12-27T06:10:48.356Z,11.57
2018-12-27T06:13:16.394Z,11.63
2018-12-27T06:15:44.464Z,11.90
2018-12-27T06:18:12.507Z,11.70
2018-12-27T06:20:40.608Z,12.30
2018-12-27T06:23:08.635Z,13.57
2018-12-27T06:25:36.680Z,10.53
2018-12-27T06:28:04.755Z,14.13
2018-12-27T06:30:32.804Z,10.90
2018-12-27T06:33:00.899Z,12.50
2018-12-27T06:35:28.931Z,12.03
2018-12-27T06:37:57.008Z,10.60
2018-12-27T06:40:25.119Z,12.35
2018-12-27T06:42:53.162Z,10.30
2018-12-27T06:45:21.237Z,10.70
2018-12-27T06:47:49.272Z,10.93
2018-12-27T06:50:17.801Z,12.17
2018-12-27T06:52:45.895Z,11.90
2018-12-27T06:55:13.952Z,12.23
2018-12-27T06:57:42.005Z,13.80
2018-12-27T07:00:10.152Z,11.50
2018-12-27T07:02:38.297Z,11.90
2018-12-27T07:05:06.444Z,13.15
2018-12-27T07:07:34.733Z,11.90
2018-12-27T07:10:02.843Z,12.07
2018-12-27T07:12:30.975Z,13.28
2018-12-27T07:14:59.182Z,11.53
2018-12-27T07:17:27.275Z,13.62
2018-12-27T07:19:55.415Z,13.60
2018-12-27T07:22:23.554Z,12.98
2018-12-27T07:24:51.642Z,11.35
2018-12-27T07:27:19.716Z,12.40
2018-12-27T07:29:47.827Z,11.70
2018-12-27T07:32:15.995Z,12.20
2018-12-27T07:34:44.667Z,12.25
2018-12-27T07:37:12.861Z,11.93
2018-12-27T07:39:40.987Z,12.05
2018-12-27T07:42:09.086Z,11.68
2018-12-27T07:44:37.251Z,13.28
2018-12-27T07:47:05.714Z,11.85
2018-12-27T07:49:33.892Z,12.23
2018-12-27T07:52:01.954Z,12.23
2018-12-27T07:54:30.068Z,12.20
2018-12-27T07:56:58.202Z,11.85
2018-12-27T07:59:26.624Z,13.05
2018-12-27T08:01:54.864Z,13.28
2018-12-27T08:04:22.916Z,12.97
2018-12-27T08:06:51.027Z,11.78
2018-12-27T08:09:19.178Z,11.90
2018-12-27T08:11:47.212Z,12.30
2018-12-27T08:14:15.459Z,12.20
2018-12-27T08:16:43.587Z,12.85
2018-12-27T08:19:11.722Z,11.73
2018-12-27T08:21:39.864Z,12.25
2018-12-27T08:24:07.979Z,12.00
2018-12-27T08:26:36.304Z,12.13
2018-12-27T08:29:04.332Z,12.20
2018-12-27T08:31:32.363Z,13.40
2018-12-27T08:34:01.114Z,11.57
2018-12-27T08:36:29.223Z,13.97
2018-12-27T08:38:57.326Z,12.67
2018-12-27T08:41:25.367Z,11.60
2018-12-27T08:43:53.396Z,13.20
2018-12-27T08:46:21.464Z,13.03
2018-12-27T08:48:49.488Z,13.77
2018-12-27T08:51:17.628Z,13.90
2018-12-27T08:53:45.659Z,12.40
2018-12-27T08:56:13.848Z,14.10
2018-12-27T08:58:41.988Z,13.50
2018-12-27T09:01:10.052Z,11.30
2018-12-27T09:03:38.116Z,11.70
2018-12-27T09:06:06.157Z,13.37
2018-12-27T09:08:34.240Z,12.80
2018-12-27T09:11:02.277Z,12.00
2018-12-27T09:13:30.362Z,12.60
2018-12-27T09:15:58.517Z,12.70
2018-12-27T09:18:26.552Z,11.27
2018-12-27T09:20:54.619Z,11.20
2018-12-27T09:23:22.748Z,12.43
2018-12-27T09:25:50.813Z,9.97
2018-12-27T09:28:18.864Z,13.20
2018-12-27T09:30:46.944Z,13.57
2018-12-27T09:33:14.968Z,11.20
2018-12-27T09:35:43.023Z,12.00
2018-12-27T09:38:11.074Z,11.80
2018-12-27T09:40:39.095Z,13.60
2018-12-27T09:43:07.164Z,11.93
2018-12-27T09:45:35.219Z,12.20
2018-12-27T09:48:03.366Z,11.30
2018-12-27T09:50:31.395Z,12.00
2018-12-27T09:52:59.423Z,11.77
2018-12-27T09:55:27.490Z,12.67
2018-12-27T09:57:55.550Z,12.47
2018-12-27T10:00:23.635Z,12.30
2018-12-27T10:02:51.675Z,13.03
2018-12-27T10:05:19.750Z,12.73
2018-12-27T10:07:47.793Z,11.70
2018-12-27T10:10:15.831Z,10.43
2018-12-27T10:12:43.890Z,11.03
2018-12-27T10:15:11.940Z,11.30
2018-12-27T10:17:39.987Z,10.50
2018-12-27T10:20:08.255Z,14.70
2018-12-27T10:22:36.399Z,11.17
2018-12-27T10:25:04.801Z,11.23
2018-12-27T10:27:32.840Z,11.60
2018-12-27T10:30:00.891Z,10.40
2018-12-27T10:32:28.932Z,11.03
2018-12-27T10:34:57.035Z,10.00
2018-12-27T10:37:25.052Z,11.57
2018-12-27T10:39:53.119Z,11.73
2018-12-27T10:42:21.159Z,11.47
2018-12-27T10:44:49.248Z,12.70
2018-12-27T10:47:17.300Z,12.60
2018-12-27T10:49:45.344Z,11.90
2018-12-27T10:52:13.404Z,12.07
2018-12-27T10:54:41.455Z,10.43
2018-12-27T10:57:09.523Z,10.53
2018-12-27T10:59:37.569Z,12.07
2018-12-27T11:02:05.675Z,11.77
2018-12-27T11:04:33.723Z,11.13
2018-12-27T11:07:01.779Z,11.27
2018-12-27T11:09:29.839Z,10.30
2018-12-27T11:11:57.884Z,10.43
2018-12-27T11:14:25.968Z,10.20
2018-12-27T11:16:54.013Z,11.30
2018-12-27T11:19:22.154Z,10.70
2018-12-27T11:21:50.199Z,18.73
2018-12-27T11:24:18.243Z,12.43
2018-12-27T11:26:46.299Z,11.27
2018-12-27T11:29:14.400Z,10.17
2018-12-27T11:31:42.395Z,10.50
2018-12-27T11:34:10.453Z,9.40
2018-12-27T11:36:38.778Z,10.80
2018-12-27T11:39:06.814Z,12.87
2018-12-27T11:41:34.874Z,11.73
2018-12-27T11:44:02.952Z,8.70
2018-12-27T11:46:30.980Z,9.83
2018-12-27T11:48:59.035Z,10.50
2018-12-27T11:51:27.070Z,10.20
2018-12-27T11:53:55.280Z,11.23
2018-12-27T11:56:23.331Z,10.00
2018-12-27T11:58:51.486Z,9.17
2018-12-27T12:01:19.535Z,9.60
2018-12-27T12:03:47.595Z,8.70
2018-12-27T12:06:15.842Z,9.10
2018-12-27T12:08:43.878Z,9.07
2018-12-27T12:11:11.915Z,9.53
2018-12-27T12:13:39.972Z,8.80
2018-12-27T12:16:08.051Z,10.43
2018-12-27T12:18:36.223Z,8.97
2018-12-27T12:21:04.360Z,9.63
2018-12-27T12:23:32.490Z,9.77
2018-12-27T12:26:00.723Z,9.23
2018-12-27T12:28:28.755Z,9.40
2018-12-27T12:30:56.792Z,8.80
2018-12-27T12:33:24.844Z,9.40
2018-12-27T12:35:52.886Z,9.57
2018-12-27T12:38:21.187Z,10.93
2018-12-27T12:40:49.250Z,9.40
2018-12-27T12:43:17.299Z,8.67
2018-12-27T12:45:45.336Z,8.67
2018-12-27T12:48:13.412Z,9.20
2018-12-27T12:50:41.446Z,10.87
2018-12-27T12:53:09.536Z,9.70
2018-12-27T12:55:37.595Z,9.13
2018-12-27T12:58:05.631Z,9.70
2018-12-27T13:00:33.681Z,9.57
2018-12-27T13:03:01.748Z,8.93
2018-12-27T13:05:29.993Z,10.17
2018-12-27T13:07:58.019Z,8.73
2018-12-27T13:10:26.057Z,9.07
2018-12-27T13:12:54.127Z,9.50
2018-12-27T13:15:22.175Z,9.77
2018-12-27T13:17:50.239Z,9.30
2018-12-27T13:20:18.280Z,8.10
2018-12-27T13:22:46.589Z,8.37
2018-12-27T13:25:14.625Z,9.60
2018-12-27T13:27:42.813Z,8.27
2018-12-27T13:30:10.858Z,10.10
2018-12-27T13:32:38.887Z,8.90
2018-12-27T13:35:06.949Z,8.27
2018-12-27T13:37:35.019Z,9.20
2018-12-27T13:40:03.064Z,8.30
2018-12-27T13:42:31.098Z,9.63
2018-12-27T13:44:59.130Z,7.87
2018-12-27T13:47:27.184Z,7.23
2018-12-27T13:49:55.223Z,9.40
2018-12-27T13:52:23.768Z,9.23
2018-12-27T13:54:51.930Z,9.53
2018-12-27T13:57:20.011Z,9.90
2018-12-27T13:59:48.083Z,10.40
2018-12-27T14:02:16.132Z,9.37
2018-12-27T14:04:44.239Z,8.60
2018-12-27T14:07:12.311Z,10.43
2018-12-27T14:09:40.364Z,8.27
2018-12-27T14:12:08.419Z,8.90
2018-12-27T14:14:36.438Z,7.33
2018-12-27T14:17:04.794Z,11.03
2018-12-27T14:19:32.821Z,9.40
2018-12-27T14:22:00.847Z,10.73
2018-12-27T14:24:28.996Z,9.00
2018-12-27T14:26:57.070Z,8.60
2018-12-27T14:29:25.250Z,8.50
2018-12-27T14:31:53.283Z,8.40
2018-12-27T14:34:21.303Z,8.17
2018-12-27T14:36:49.353Z,8.10
2018-12-27T14:39:17.387Z,8.97
2018-12-27T14:41:45.443Z,8.53
2018-12-27T14:44:14.453Z,8.77
2018-12-27T14:46:42.599Z,9.37
2018-12-27T14:49:10.663Z,7.93
2018-12-27T14:51:38.688Z,8.47
2018-12-27T14:54:06.894Z,9.10
2018-12-27T14:56:34.951Z,6.80
2018-12-27T14:59:02.974Z,9.00
2018-12-27T15:01:32.520Z,7.17
2018-12-27T15:04:00.717Z,8.80
2018-12-27T15:06:29.109Z,8.30
2018-12-27T15:08:57.142Z,8.57
2018-12-27T15:11:25.164Z,7.60
2018-12-27T15:13:53.280Z,8.40
2018-12-27T15:16:21.396Z,10.10
2018-12-27T15:18:49.559Z,9.30
2018-12-27T15:21:17.708Z,8.50
2018-12-27T15:23:45.767Z,10.13
2018-12-27T15:26:13.831Z,9.17
2018-12-27T15:28:41.872Z,10.90
2018-12-27T15:31:10.027Z,10.43
2018-12-27T15:33:38.061Z,9.87
2018-12-27T15:36:06.092Z,8.87
2018-12-27T15:38:34.258Z,10.13
2018-12-27T15:41:02.292Z,9.37
2018-12-27T15:43:30.339Z,10.00
2018-12-27T15:45:58.367Z,8.77
2018-12-27T15:48:26.523Z,9.50
2018-12-27T15:50:54.578Z,11.70
2018-12-27T15:53:22.699Z,9.63
2018-12-27T15:55:50.751Z,8.60
2018-12-27T15:58:18.781Z,9.90
2018-12-27T16:00:46.851Z,11.20
2018-12-27T16:03:14.878Z,10.30
2018-12-27T16:05:42.955Z,9.07
2018-12-27T16:08:11.011Z,10.23
2018-12-27T16:10:39.047Z,12.10
2018-12-27T16:13:07.117Z,11.80
2018-12-27T16:15:35.140Z,13.50
2018-12-27T16:18:03.182Z,12.10
2018-12-27T16:20:31.242Z,11.23
2018-12-27T16:22:59.389Z,12.30
2018-12-27T16:25:27.619Z,13.03
2018-12-27T16:27:55.653Z,17.83
2018-12-27T16:30:23.679Z,13.60
2018-12-27T16:32:51.742Z,10.60
2018-12-27T16:35:19.790Z,12.73
2018-12-27T16:37:47.848Z,10.73
2018-12-27T16:40:15.905Z,10.40
2018-12-27T16:42:43.911Z,11.50
2018-12-27T16:45:11.994Z,12.80
2018-12-27T16:47:40.028Z,12.07
2018-12-27T16:50:08.782Z,11.23
2018-12-27T16:52:36.817Z,9.53
2018-12-27T16:55:05.024Z,9.07
2018-12-27T16:57:33.064Z,10.37
2018-12-27T17:00:01.099Z,10.87
2018-12-27T17:02:29.151Z,9.97
2018-12-27T17:04:57.232Z,9.63
2018-12-27T17:07:25.548Z,9.83
2018-12-27T17:09:53.566Z,9.00
2018-12-27T17:12:21.614Z,9.70
2018-12-27T17:14:49.651Z,8.63
2018-12-27T17:17:17.683Z,7.43
2018-12-27T17:19:45.736Z,8.73
2018-12-27T17:22:13.763Z,8.77
2018-12-27T17:24:42.175Z,10.10
2018-12-27T17:27:10.199Z,8.50
2018-12-27T17:29:38.244Z,9.27
2018-12-27T17:32:06.311Z,9.63
2018-12-27T17:34:34.456Z,9.40
2018-12-27T17:37:02.529Z,9.60
2018-12-27T17:39:30.567Z,8.50
2018-12-27T17:41:58.767Z,7.67
2018-12-27T17:44:26.819Z,7.73
2018-12-27T17:46:54.862Z,8.40
2018-12-27T17:49:22.927Z,7.53
2018-12-27T17:51:50.977Z,9.00
2018-12-27T17:54:19.011Z,8.20
2018-12-27T17:56:47.080Z,7.67
2018-12-27T17:59:15.268Z,8.17
2018-12-27T18:01:43.312Z,7.50
2018-12-27T18:04:11.363Z,11.50
2018-12-27T18:06:39.439Z,9.67
2018-12-27T18:09:07.789Z,11.07
2018-12-27T18:11:35.853Z,13.00
2018-12-27T18:14:04.027Z,11.73
2018-12-27T18:16:32.287Z,11.40
2018-12-27T18:19:00.337Z,10.20
2018-12-27T18:21:28.380Z,9.57
2018-12-27T18:23:56.439Z,9.20
2018-12-27T18:26:24.571Z,9.73
2018-12-27T18:28:52.623Z,9.53
2018-12-27T18:31:20.649Z,9.43
2018-12-27T18:33:48.896Z,8.70
2018-12-27T18:36:16.934Z,9.30
2018-12-27T18:38:44.959Z,12.20
2018-12-27T18:41:13.034Z,9.23
2018-12-27T18:43:41.059Z,9.20
2018-12-27T18:46:09.115Z,10.43
2018-12-27T18:48:37.135Z,9.93
2018-12-27T18:51:05.224Z,9.20
2018-12-27T18:53:33.247Z,9.90
2018-12-27T18:56:01.298Z,9.87
2018-12-27T18:58:29.355Z,11.30
2018-12-27T19:00:57.394Z,10.37
2018-12-27T19:03:25.447Z,9.53
2018-12-27T19:05:53.672Z,11.00
2018-12-27T19:08:21.765Z,10.27
2018-12-27T19:11:07.619Z,10.90
2018-12-27T19:13:35.786Z,12.67
2018-12-27T19:16:04.243Z,11.73
2018-12-27T19:18:40.428Z,10.60
2018-12-27T19:21:13.736Z,10.83
2018-12-27T19:23:41.767Z,10.20
2018-12-27T19:26:09.831Z,10.20
2018-12-27T19:28:38.455Z,9.90
2018-12-27T19:31:06.531Z,9.50
2018-12-27T19:33:34.646Z,10.83
2018-12-27T19:36:02.702Z,11.07
2018-12-27T19:38:30.723Z,9.43
2018-12-27T19:40:58.860Z,9.87
2018-12-27T19:43:26.915Z,11.37
2018-12-27T19:45:54.978Z,11.80
2018-12-27T19:48:23.327Z,9.77
2018-12-27T19:50:51.395Z,9.70
2018-12-27T19:53:19.452Z,10.30
2018-12-27T19:55:47.553Z,11.60
2018-12-27T19:58:15.583Z,11.23
2018-12-27T20:00:43.694Z,10.90
2018-12-27T20:03:11.721Z,9.93
2018-12-27T20:05:39.932Z,11.10
2018-12-27T20:08:07.987Z,10.40
2018-12-27T20:10:36.028Z,11.33
2018-12-27T20:13:04.091Z,9.93
2018-12-27T20:15:32.312Z,11.00
2018-12-27T20:18:00.349Z,11.30
2018-12-27T20:20:28.463Z,10.40
2018-12-27T20:22:56.631Z,9.70
2018-12-27T20:25:24.679Z,10.00
2018-12-27T20:27:52.711Z,10.63
2018-12-27T20:30:20.780Z,11.10
2018-12-27T20:32:48.819Z,10.63
2018-12-27T20:35:16.930Z,10.40
2018-12-27T20:37:44.939Z,10.07
2018-12-27T20:40:13.141Z,11.30
2018-12-27T20:42:41.173Z,11.33
2018-12-27T20:45:09.211Z,10.10
2018-12-27T20:47:37.271Z,11.20
2018-12-27T20:50:05.648Z,10.40
2018-12-27T20:52:33.713Z,11.50
2018-12-27T20:55:01.880Z,10.53
2018-12-27T20:57:29.978Z,9.70
2018-12-27T20:59:58.023Z,11.60
2018-12-27T21:02:26.052Z,11.30
2018-12-27T21:04:54.147Z,11.00
2018-12-27T21:07:22.192Z,11.03
2018-12-27T21:09:50.236Z,9.57
2018-12-27T21:12:18.363Z,10.20
2018-12-27T21:14:46.574Z,12.03
2018-12-27T21:17:14.694Z,11.83
2018-12-27T21:19:42.763Z,11.20
2018-12-27T21:22:10.835Z,9.70
2018-12-27T21:24:38.867Z,11.53
2018-12-27T21:27:06.923Z,9.70
2018-12-27T21:29:35.100Z,9.67
2018-12-27T21:32:03.210Z,9.93
2018-12-27T21:34:31.331Z,8.70
2018-12-27T21:36:59.366Z,10.93
2018-12-27T21:39:27.451Z,10.47
2018-12-27T21:41:55.500Z,10.97
2018-12-27T21:44:23.583Z,10.83
2018-12-27T21:46:51.688Z,9.75
2018-12-27T21:49:19.786Z,9.13
2018-12-27T21:51:47.824Z,12.00
2018-12-27T21:54:15.859Z,8.53
2018-12-27T21:56:43.926Z,9.80
2018-12-27T21:59:11.971Z,10.50
2018-12-27T22:01:40.118Z,10.00
2018-12-27T22:04:08.151Z,9.97
2018-12-27T22:06:36.235Z,11.50
2018-12-27T22:09:06.120Z,9.98
2018-12-27T22:11:34.359Z,10.03
2018-12-27T22:14:02.402Z,10.33
2018-12-27T22:16:30.539Z,10.60
2018-12-27T22:18:58.605Z,11.10
2018-12-27T22:21:26.951Z,9.77
2018-12-27T22:23:54.950Z,10.93
2018-12-27T22:26:23.089Z,10.93
2018-12-27T22:28:51.232Z,11.60
2018-12-27T22:31:19.259Z,10.97
2018-12-27T22:33:47.339Z,10.20
2018-12-27T22:36:15.468Z,10.80
2018-12-27T22:38:43.503Z,10.00
2018-12-27T22:41:11.658Z,11.03
2018-12-27T22:43:39.807Z,9.53
2018-12-27T22:46:08.657Z,10.23
2018-12-27T22:48:36.649Z,10.77
2018-12-27T22:51:04.682Z,12.53
2018-12-27T22:53:32.749Z,10.73
2018-12-27T22:56:00.819Z,10.10
2018-12-27T22:58:29.065Z,11.80
2018-12-27T23:00:57.202Z,10.37
2018-12-27T23:03:25.240Z,12.10
2018-12-27T23:05:53.299Z,11.27
2018-12-27T23:08:21.358Z,12.20
2018-12-27T23:10:49.514Z,12.33
2018-12-27T23:13:17.619Z,12.45
2018-12-27T23:15:45.780Z,11.60
2018-12-27T23:18:13.897Z,10.85
2018-12-27T23:20:42.035Z,12.25
2018-12-27T23:23:10.178Z,11.10
2018-12-27T23:25:38.303Z,11.20
2018-12-27T23:28:06.343Z,10.53
2018-12-27T23:30:34.461Z,12.33
2018-12-27T23:33:02.503Z,10.70
2018-12-27T23:35:30.675Z,11.57
2018-12-27T23:37:58.727Z,11.07
2018-12-27T23:40:26.790Z,10.17
2018-12-27T23:42:54.907Z,10.75
2018-12-27T23:45:22.936Z,10.87
2018-12-27T23:47:50.995Z,11.83
2018-12-27T23:50:20.588Z,10.73
2018-12-27T23:52:49.812Z,11.50
2018-12-27T23:55:18.050Z,11.60
2018-12-27T23:57:46.079Z,11.07
